Time;durP1;ratioP1;P1;durP2;ratioP2;P2;SDS_P1;SDS_P2;PMS_P1;PMS_P2;Temp;Humidity;BMP_temperature;BMP_pressure;BME280_temperature;BME280_humidity;BME280_pressure;Samples;Min_cycle;Max_cycle;Signal;HPM_P1;HPM_P2
2022/12/10 00:04:24;;;;;;;3.70;2.95;;;;;;;20.45;48.15;95551.00;10495818;28;20123;-57
2022/12/10 00:09:44;;;;;;;4.00;2.97;;;;;;;20.43;48.35;95560.63;10495573;28;20056;-54
2022/12/10 00:15:03;;;;;;;3.53;3.20;;;;;;;20.42;48.47;95559.06;10495824;28;20056;-56
2022/12/10 00:20:23;;;;;;;3.42;2.97;;;;;;;20.39;48.43;95552.44;10495643;28;20044;-57
2022/12/10 00:25:42;;;;;;;3.85;2.75;;;;;;;20.38;48.44;95560.91;10495493;28;20110;-57
2022/12/10 00:31:06;;;;;;;3.47;2.80;;;;;;;20.34;48.43;95553.50;10495564;28;20052;-56
2022/12/10 00:36:29;;;;;;;3.20;2.90;;;;;;;20.32;48.46;95553.09;10495624;28;20060;-57
2022/12/10 00:41:49;;;;;;;3.17;2.80;;;;;;;20.32;48.45;95569.31;10503220;28;20049;-57
2022/12/10 00:47:09;;;;;;;3.30;2.80;;;;;;;20.30;48.42;95573.53;10490974;28;20056;-57
2022/12/10 00:52:28;;;;;;;3.10;2.75;;;;;;;20.27;48.50;95566.91;10516162;28;20044;-57
2022/12/10 00:57:47;;;;;;;2.75;2.45;;;;;;;20.27;48.32;95572.31;10516102;28;20048;-57
2022/12/10 01:03:07;;;;;;;3.80;2.88;;;;;;;20.24;48.27;95580.38;10501497;28;20491;-57
2022/12/10 01:08:26;;;;;;;3.00;2.70;;;;;;;20.23;48.44;95581.50;10502378;28;20048;-58
2022/12/10 01:13:47;;;;;;;3.75;2.78;;;;;;;20.21;48.30;95576.47;10486898;28;20045;-56
2022/12/10 01:19:07;;;;;;;3.00;2.67;;;;;;;20.18;48.30;95582.56;10515126;28;20047;-57
2022/12/10 01:24:28;;;;;;;2.72;2.53;;;;;;;20.18;48.31;95596.09;10501739;28;20093;-57
2022/12/10 01:29:48;;;;;;;3.15;2.80;;;;;;;20.15;48.31;95588.72;10515117;28;20487;-57
2022/12/10 01:35:07;;;;;;;3.33;3.00;;;;;;;20.12;48.26;95589.41;10479106;28;20053;-57
2022/12/10 01:40:27;;;;;;;2.85;2.65;;;;;;;20.11;48.13;95585.13;10503135;28;20048;-57
2022/12/10 01:45:47;;;;;;;3.15;2.85;;;;;;;20.09;48.27;95584.72;10500456;28;20045;-57
2022/12/10 01:51:08;;;;;;;3.08;2.78;;;;;;;20.06;48.14;95575.41;10500151;28;20071;-57
2022/12/10 01:56:28;;;;;;;3.15;2.58;;;;;;;20.06;48.17;95582.72;10484495;28;20056;-57
2022/12/10 02:02:22;;;;;;;3.45;2.97;;;;;;;20.04;47.99;95590.41;10513435;28;20475;-57
2022/12/10 02:08:09;;;;;;;3.40;2.67;;;;;;;20.02;48.01;95590.78;10432074;28;20549;-57
2022/12/10 02:13:34;;;;;;;3.47;2.60;;;;;;;19.99;48.02;95583.34;10490390;28;20053;-57
2022/12/10 02:19:13;;;;;;;2.63;2.42;;;;;;;19.98;48.05;95592.63;10475251;28;20059;-57
2022/12/10 02:24:35;;;;;;;3.13;2.63;;;;;;;19.97;47.89;95592.97;10497416;28;20063;-57
2022/12/10 02:29:55;;;;;;;2.65;2.45;;;;;;;19.93;48.00;95604.50;10465953;28;20436;-57
2022/12/10 02:35:21;;;;;;;3.10;2.60;;;;;;;19.92;47.95;95604.84;10477578;28;20118;-57
2022/12/10 02:40:46;;;;;;;2.80;2.53;;;;;;;19.91;47.87;95593.25;10477834;28;20067;-57
2022/12/10 02:46:06;;;;;;;3.08;2.67;;;;;;;19.89;47.89;95595.53;10483421;28;20049;-56
2022/12/10 02:51:25;;;;;;;4.03;2.60;;;;;;;19.87;48.02;95605.91;10497761;28;20098;-57
2022/12/10 02:56:53;;;;;;;3.00;2.70;;;;;;;19.84;48.00;95609.34;10472843;28;20060;-56
2022/12/10 03:02:17;;;;;;;2.58;2.38;;;;;;;19.84;47.99;95614.75;10481151;28;20048;-57
2022/12/10 03:07:46;;;;;;;3.17;2.88;;;;;;;19.82;48.15;95622.41;10482457;28;20048;-56
2022/12/10 03:13:11;;;;;;;2.75;2.55;;;;;;;19.79;47.89;95611.53;10482130;28;20045;-57
2022/12/10 03:18:34;;;;;;;2.60;2.40;;;;;;;19.77;47.85;95622.69;10482019;28;20056;-57
2022/12/10 03:23:53;;;;;;;2.63;2.33;;;;;;;19.75;47.90;95624.97;10497235;28;20040;-57
2022/12/10 03:29:19;;;;;;;2.90;2.50;;;;;;;19.74;47.83;95626.13;10496956;28;20495;-52
2022/12/10 03:34:38;;;;;;;2.85;2.58;;;;;;;19.72;47.93;95633.78;10471941;28;20422;-55
2022/12/10 03:39:58;;;;;;;2.70;2.50;;;;;;;19.70;47.75;95625.22;10495879;28;20064;-57
2022/12/10 03:45:17;;;;;;;2.60;2.40;;;;;;;19.68;47.80;95617.47;10495553;28;20518;-56
2022/12/10 03:50:37;;;;;;;2.97;2.45;;;;;;;19.68;47.83;95614.75;10496026;28;20048;-56
2022/12/10 03:55:56;;;;;;;2.60;2.38;;;;;;;19.66;47.67;95614.34;10496107;28;20048;-57
2022/12/10 04:01:15;;;;;;;3.13;2.80;;;;;;;19.64;47.82;95615.81;10496153;28;20060;-56
2022/12/10 04:06:38;;;;;;;2.67;2.47;;;;;;;19.62;47.80;95602.66;10495921;28;20056;-56
2022/12/10 04:11:58;;;;;;;2.45;2.25;;;;;;;19.60;47.78;95614.94;10495693;28;20110;-57
2022/12/10 04:17:17;;;;;;;2.60;2.40;;;;;;;19.59;47.72;95613.41;10498408;28;20060;-57
2022/12/10 04:28:15;;;;;;;2.90;2.70;;;;;;;19.55;47.63;95599.81;10503562;28;20060;-56
2022/12/10 04:33:35;;;;;;;2.63;2.42;;;;;;;19.54;47.67;95595.53;10503724;28;20056;-57
2022/12/10 04:38:54;;;;;;;2.30;2.10;;;;;;;19.51;47.69;95599.72;10513271;28;20056;-56
2022/12/10 04:44:14;;;;;;;3.17;2.80;;;;;;;19.51;47.60;95607.81;10502424;28;20087;-58
2022/12/10 04:49:34;;;;;;;2.85;2.58;;;;;;;19.49;47.49;95609.31;10502345;28;20056;-57
2022/12/10 04:54:53;;;;;;;2.60;2.40;;;;;;;19.47;47.55;95592.69;10503045;28;20048;-57
2022/12/10 05:00:13;;;;;;;3.20;2.45;;;;;;;19.46;47.39;95599.22;10490935;28;20053;-56
2022/12/10 05:05:36;;;;;;;2.75;2.45;;;;;;;19.44;47.41;95596.09;10501548;28;20504;-57
2022/12/10 05:11:01;;;;;;;2.70;2.50;;;;;;;19.42;47.41;95593.72;10515487;28;20732;-57
2022/12/10 05:16:22;;;;;;;2.90;2.60;;;;;;;19.40;47.46;95587.91;10502164;28;20052;-57
2022/12/10 05:27:20;;;;;;;3.05;2.63;;;;;;;19.36;47.35;95590.50;10495326;28;20107;-57
2022/12/10 05:32:39;;;;;;;2.70;2.50;;;;;;;19.35;47.45;95588.19;10514640;28;20399;-56
2022/12/10 05:37:58;;;;;;;2.85;2.63;;;;;;;19.34;47.38;95592.00;10501048;28;20064;-57
2022/12/10 05:43:18;;;;;;;2.88;2.53;;;;;;;19.32;47.38;95607.78;10514368;28;20041;-57
2022/12/10 05:48:38;;;;;;;3.22;2.58;;;;;;;19.30;47.42;95616.22;10514008;28;20048;-57
2022/12/10 05:53:58;;;;;;;2.92;2.60;;;;;;;19.29;47.26;95617.38;10513569;28;20445;-57
2022/12/10 05:59:18;;;;;;;3.05;2.75;;;;;;;19.28;47.43;95625.81;10500577;28;20053;-56
2022/12/10 06:04:37;;;;;;;3.25;2.65;;;;;;;19.27;47.45;95635.06;10499971;28;20048;-56
2022/12/10 06:09:56;;;;;;;2.90;2.70;;;;;;;19.26;47.41;95638.88;10499807;28;20075;-57
2022/12/10 06:15:16;;;;;;;2.92;2.55;;;;;;;19.23;47.39;95651.19;10499681;28;20060;-57
2022/12/10 06:20:38;;;;;;;2.95;2.60;;;;;;;19.23;47.30;95655.78;10503655;28;20040;-57
2022/12/10 06:25:58;;;;;;;2.63;2.42;;;;;;;19.21;47.37;95649.94;10498493;28;20052;-57
2022/12/10 06:31:18;;;;;;;2.97;2.58;;;;;;;19.18;47.44;95648.72;10497830;28;20122;-57
2022/12/10 06:36:37;;;;;;;3.33;2.70;;;;;;;19.17;47.42;95647.19;10508281;28;20086;-57
2022/12/10 06:41:57;;;;;;;3.42;2.38;;;;;;;19.15;47.30;95641.31;10494739;28;20057;-57
2022/12/10 06:47:16;;;;;;;2.60;2.40;;;;;;;19.13;47.45;95643.59;10498309;28;20052;-55
2022/12/10 06:52:35;;;;;;;2.40;2.20;;;;;;;19.12;47.49;95645.50;10497818;28;20462;-56
2022/12/10 06:57:55;;;;;;;2.55;2.30;;;;;;;19.12;47.49;95655.53;10497801;28;20060;-57
2022/12/10 07:03:14;;;;;;;3.92;2.70;;;;;;;19.11;47.77;95662.03;10496829;28;20053;-57
2022/12/10 07:08:33;;;;;;;2.78;2.58;;;;;;;19.11;47.72;95678.25;10497440;28;20059;-58
2022/12/10 07:13:54;;;;;;;2.65;2.40;;;;;;;19.10;47.78;95669.38;10496606;28;20492;-58
2022/12/10 07:19:13;;;;;;;2.75;2.55;;;;;;;19.10;47.83;95666.66;10497756;28;20045;-55
2022/12/10 07:24:34;;;;;;;4.03;2.58;;;;;;;19.10;48.02;95655.09;10510561;28;20040;-57
2022/12/10 07:29:53;;;;;;;2.67;2.47;;;;;;;19.10;47.90;95658.56;10495613;28;20048;-58
2022/12/10 07:35:12;;;;;;;2.78;2.58;;;;;;;19.12;48.17;95667.09;10496136;28;20501;-57
2022/12/10 07:40:31;;;;;;;2.72;2.53;;;;;;;19.11;48.13;95673.66;10496391;28;20048;-57
2022/12/10 07:45:51;;;;;;;3.92;2.90;;;;;;;19.15;48.27;95685.31;10495930;28;20419;-57
2022/12/10 07:51:11;;;;;;;2.78;2.58;;;;;;;19.16;48.45;95696.91;10495568;28;20063;-57
2022/12/10 07:56:32;;;;;;;2.88;2.58;;;;;;;19.18;48.49;95708.13;10491954;28;20526;-56
2022/12/10 08:01:52;;;;;;;3.15;2.83;;;;;;;19.20;48.64;95713.97;10494758;28;20040;-57
2022/12/10 08:07:11;;;;;;;2.95;2.65;;;;;;;19.24;48.60;95716.75;10496266;28;20057;-57
2022/12/10 08:12:31;;;;;;;2.97;2.67;;;;;;;19.23;48.65;95712.47;10494175;28;20606;-57
2022/12/10 08:17:50;;;;;;;3.50;2.97;;;;;;;19.25;48.86;95716.41;10494238;28;20063;-57
2022/12/10 08:23:10;;;;;;;2.85;2.60;;;;;;;19.29;48.75;95716.50;10490748;28;20082;-55
2022/12/10 08:28:30;;;;;;;3.70;2.75;;;;;;;19.31;48.55;95725.03;10493461;28;20421;-57
2022/12/10 08:33:49;;;;;;;2.78;2.58;;;;;;;19.33;48.61;95720.06;10508614;28;20051;-56
2022/12/10 08:39:10;;;;;;;3.40;3.10;;;;;;;19.36;48.58;95719.38;10495055;28;20056;-56
2022/12/10 08:44:29;;;;;;;2.83;2.58;;;;;;;19.38;48.54;95719.03;10490280;28;20560;-56
2022/12/10 08:49:48;;;;;;;3.40;2.70;;;;;;;19.41;48.66;95716.41;10492231;28;20041;-56
2022/12/10 08:55:08;;;;;;;2.72;2.53;;;;;;;19.45;48.62;95711.09;10494785;28;20052;-56
2022/12/10 09:00:28;;;;;;;3.70;2.55;;;;;;;19.46;48.68;95710.72;10497563;28;20060;-57
2022/12/10 09:05:47;;;;;;;2.92;2.60;;;;;;;19.50;48.51;95708.91;10502084;28;20044;-56
2022/12/10 09:11:12;;;;;;;3.90;2.92;;;;;;;19.52;48.28;95695.84;10501630;28;20048;-57
2022/12/10 09:16:35;;;;;;;5.32;3.00;;;;;;;19.54;48.53;95701.69;10501802;28;20064;-57
2022/12/10 09:21:55;;;;;;;4.95;3.67;;;;;;;19.58;47.02;95703.66;10501805;28;20045;-55
2022/12/10 09:27:14;;;;;;;4.65;4.18;;;;;;;19.61;47.53;95711.09;10491037;28;20052;-56
2022/12/10 09:32:34;;;;;;;6.45;4.32;;;;;;;19.62;47.71;95701.81;10501234;28;20419;-56
2022/12/10 09:37:53;;;;;;;6.38;4.40;;;;;;;19.65;47.60;95693.81;10500885;28;20060;-57
2022/12/10 09:43:52;;;;;;;4.53;4.13;;;;;;;19.68;47.72;95682.31;10500081;28;20515;-58
2022/12/10 09:49:23;;;;;;;4.75;4.10;;;;;;;19.73;47.64;95694.78;10485874;28;20110;-58
2022/12/10 09:54:53;;;;;;;5.88;4.55;;;;;;;19.76;47.66;95696.81;10492139;28;20047;-56
2022/12/10 10:00:26;;;;;;;4.93;4.43;;;;;;;19.79;47.43;95693.38;10485097;28;20075;-58
2022/12/10 10:05:48;;;;;;;9.20;7.45;;;;;;;19.85;46.15;95702.78;10500073;28;20131;-58
2022/12/10 10:11:18;;;;;;;12.80;8.13;;;;;;;19.91;44.37;95697.88;10488033;28;20052;-57
2022/12/10 10:16:46;;;;;;;12.05;10.00;;;;;;;19.93;44.71;95691.00;10474435;28;20412;-57
2022/12/10 10:22:05;;;;;;;19.58;12.20;;;;;;;19.95;44.78;95686.03;10476390;28;20059;-58
2022/12/10 10:27:28;;;;;;;12.25;9.38;;;;;;;19.98;45.01;95672.94;10499063;28;20052;-57
2022/12/10 10:33:01;;;;;;;13.73;10.38;;;;;;;20.00;44.92;95676.06;10497227;28;20045;-56
2022/12/10 10:38:27;;;;;;;16.60;10.45;;;;;;;20.04;45.66;95674.22;10482384;28;20416;-57
2022/12/10 10:43:48;;;;;;;14.27;10.68;;;;;;;20.06;45.85;95658.44;10498747;28;20051;-54
2022/12/10 10:49:29;;;;;;;13.13;10.68;;;;;;;20.09;46.74;95669.31;10511536;28;20488;-57
2022/12/10 10:54:49;;;;;;;13.70;10.38;;;;;;;20.11;46.93;95677.88;10511467;28;20037;-57
2022/12/10 11:00:22;;;;;;;14.40;11.13;;;;;;;20.13;47.24;95685.59;10482190;28;20071;-59
2022/12/10 11:05:47;;;;;;;14.38;10.13;;;;;;;20.18;48.19;95684.56;10482867;28;20059;-56
2022/12/10 11:11:37;;;;;;;14.05;10.48;;;;;;;20.22;48.89;95688.13;10497390;28;20059;-56
2022/12/10 11:17:19;;;;;;;14.05;10.70;;;;;;;20.27;50.74;95691.31;10508562;28;20040;-57
2022/12/10 11:22:49;;;;;;;16.95;12.27;;;;;;;20.30;51.41;95690.59;10497087;28;20518;-57
2022/12/10 11:28:43;;;;;;;17.42;11.82;;;;;;;20.33;52.89;95692.59;10492548;28;20053;-57
2022/12/10 11:34:46;;;;;;;17.42;13.20;;;;;;;20.40;54.56;95691.94;10507790;28;20048;-57
2022/12/10 11:40:28;;;;;;;20.88;12.43;;;;;;;20.44;54.62;95694.72;10485799;28;20056;-57
2022/12/10 11:46:12;;;;;;;19.83;12.80;;;;;;;20.45;55.14;95670.03;10481034;28;20053;-58
2022/12/10 11:51:51;;;;;;;37.42;27.30;;;;;;;19.95;39.45;95677.13;10509016;28;20045;-58
2022/12/10 11:57:29;;;;;;;21.48;16.48;;;;;;;19.98;46.64;95679.13;10491931;28;20110;-58
2022/12/10 12:03:26;;;;;;;23.35;17.42;;;;;;;20.11;44.80;95674.34;10509073;28;20036;-57
2022/12/10 12:08:56;;;;;;;19.58;14.60;;;;;;;20.19;44.79;95676.09;10483219;28;20082;-57
2022/12/10 12:14:24;;;;;;;20.60;15.65;;;;;;;20.24;45.48;95670.38;10459167;28;20044;-58
2022/12/10 12:19:53;;;;;;;19.50;14.80;;;;;;;20.26;46.05;95662.69;10484335;28;20412;-57
2022/12/10 12:25:48;;;;;;;18.88;14.15;;;;;;;20.28;45.51;95668.53;10475643;28;20415;-58
2022/12/10 12:31:12;;;;;;;19.15;14.85;;;;;;;20.29;46.12;95655.81;10485862;28;20059;-57
2022/12/10 12:36:34;;;;;;;18.77;13.95;;;;;;;20.28;46.37;95638.78;10500040;28;20480;-57
2022/12/10 12:42:00;;;;;;;17.45;14.02;;;;;;;20.29;46.76;95643.06;10502117;28;20059;-57
2022/12/10 12:47:32;;;;;;;17.30;13.80;;;;;;;20.29;46.77;95656.59;10493205;28;20416;-57
2022/12/10 12:52:59;;;;;;;15.88;13.05;;;;;;;20.30;47.13;95655.44;10500947;28;20483;-56
2022/12/10 12:58:24;;;;;;;15.45;12.02;;;;;;;20.31;47.35;95675.94;10502517;28;20123;-58
2022/12/10 13:03:45;;;;;;;15.18;12.13;;;;;;;20.36;47.30;95677.56;10489545;28;20102;-57
2022/12/10 13:09:13;;;;;;;15.18;12.73;;;;;;;20.37;47.48;95678.38;10501301;28;20060;-59
2022/12/10 13:15:15;;;;;;;14.18;11.50;;;;;;;20.38;47.48;95678.00;10501856;28;20049;-58
2022/12/10 13:20:41;;;;;;;12.90;11.45;;;;;;;20.41;47.64;95676.53;10495101;28;20056;-57
2022/12/10 13:26:02;;;;;;;13.23;11.55;;;;;;;20.41;47.60;95669.19;10500954;28;20060;-58
2022/12/10 13:31:44;;;;;;;14.60;11.65;;;;;;;20.43;47.71;95666.91;10501166;28;20102;-58
2022/12/10 13:37:14;;;;;;;19.95;14.07;;;;;;;20.44;47.96;95667.69;10486076;28;20060;-58
2022/12/10 13:48:34;;;;;;;19.00;12.27;;;;;;;20.49;48.04;95697.16;10513183;28;20044;-58
2022/12/10 13:54:34;;;;;;;16.70;11.93;;;;;;;20.50;47.99;95698.72;10488736;28;20056;-57
2022/12/10 14:00:16;;;;;;;15.45;11.23;;;;;;;20.53;48.05;95711.53;10499544;28;20076;-57
2022/12/10 14:05:41;;;;;;;13.55;10.80;;;;;;;20.54;48.16;95715.78;10470703;28;20052;-58
2022/12/10 14:11:02;;;;;;;14.70;11.07;;;;;;;20.53;48.10;95717.72;10487293;28;20079;-56
2022/12/10 14:16:22;;;;;;;15.43;10.73;;;;;;;20.54;47.94;95722.00;10505150;28;20411;-58
2022/12/10 14:21:43;;;;;;;17.02;10.93;;;;;;;20.54;47.96;95732.03;10484002;28;20044;-52
2022/12/10 14:27:13;;;;;;;13.98;10.93;;;;;;;20.53;47.89;95714.25;10498209;28;20060;-59
2022/12/10 14:32:35;;;;;;;12.27;10.13;;;;;;;20.53;48.16;95711.53;10511957;28;20557;-58
2022/12/10 14:37:57;;;;;;;12.43;9.30;;;;;;;20.53;48.06;95725.84;10483561;28;20059;-58
2022/12/10 14:43:22;;;;;;;12.82;9.50;;;;;;;20.53;47.91;95736.66;10482877;28;20052;-58
2022/12/10 14:48:46;;;;;;;14.80;9.27;;;;;;;20.54;48.08;95750.97;10498091;28;20052;-50
2022/12/10 14:54:42;;;;;;;14.25;9.48;;;;;;;20.55;48.76;95749.84;10498217;28;20053;-57
2022/12/10 15:00:07;;;;;;;14.05;9.40;;;;;;;20.55;48.77;95753.31;10486815;28;20087;-57
2022/12/10 15:05:30;;;;;;;13.50;9.55;;;;;;;20.57;48.75;95757.59;10482513;28;20052;-56
2022/12/10 15:10:53;;;;;;;11.55;9.40;;;;;;;20.56;48.94;95754.09;10490323;28;20051;-58
2022/12/10 15:16:40;;;;;;;11.57;9.20;;;;;;;20.56;49.33;95751.38;10497680;28;20056;-58
2022/12/10 15:22:20;;;;;;;13.10;8.85;;;;;;;20.54;48.83;95748.25;10493523;28;20523;-57
2022/12/10 15:27:40;;;;;;;11.43;9.00;;;;;;;20.53;49.24;95752.91;10496473;28;20057;-58
2022/12/10 15:33:00;;;;;;;13.15;8.60;;;;;;;20.52;49.22;95761.34;10488183;28;20076;-59
2022/12/10 15:38:19;;;;;;;11.40;8.95;;;;;;;20.52;49.62;95755.94;10481571;28;20052;-57
2022/12/10 15:43:51;;;;;;;14.10;8.80;;;;;;;20.50;49.56;95758.22;10496490;28;20049;-58
2022/12/10 15:49:11;;;;;;;15.73;9.35;;;;;;;20.50;49.82;95752.81;10504979;28;20060;-58
2022/12/10 15:54:34;;;;;;;14.57;9.43;;;;;;;20.51;49.98;95754.41;10508936;28;20381;-57
2022/12/10 15:59:58;;;;;;;12.23;9.90;;;;;;;20.49;50.20;95753.97;10509226;28;20045;-57
2022/12/10 16:05:18;;;;;;;13.23;8.30;;;;;;;20.50;49.97;95758.22;10495509;28;20056;-58
2022/12/10 16:10:38;;;;;;;11.38;8.40;;;;;;;20.49;49.96;95762.09;10485149;28;20496;-59
2022/12/10 16:16:04;;;;;;;12.48;8.82;;;;;;;20.48;49.95;95755.09;10504494;28;20056;-57
2022/12/10 16:21:24;;;;;;;16.48;8.52;;;;;;;20.45;50.07;95766.66;10517231;28;20094;-59
2022/12/10 16:26:43;;;;;;;10.20;8.30;;;;;;;20.44;49.99;95771.25;10503562;28;20096;-57
2022/12/10 16:32:02;;;;;;;11.13;8.23;;;;;;;20.44;50.28;95765.06;10503139;28;20052;-58
2022/12/10 16:37:22;;;;;;;11.95;7.95;;;;;;;20.43;50.43;95750.75;10503129;28;20491;-58
2022/12/10 16:42:41;;;;;;;13.52;8.15;;;;;;;20.43;50.54;95748.06;10502473;28;20056;-58
2022/12/10 16:48:01;;;;;;;11.85;8.13;;;;;;;20.42;50.48;95745.69;10503209;28;20057;-58
2022/12/10 16:53:26;;;;;;;10.45;7.10;;;;;;;20.42;50.43;95740.28;10502878;28;20102;-56
2022/12/10 16:58:45;;;;;;;11.90;7.43;;;;;;;20.42;50.61;95743.00;10502727;28;20044;-57
2022/12/10 17:04:05;;;;;;;9.77;7.57;;;;;;;20.37;50.34;95754.88;10510660;28;20048;-58
2022/12/10 17:09:24;;;;;;;10.27;7.55;;;;;;;20.37;50.24;95759.53;10502199;28;20060;-59
2022/12/10 17:14:46;;;;;;;10.27;7.78;;;;;;;20.33;48.99;95759.44;10501368;28;20055;-58
2022/12/10 17:20:15;;;;;;;10.32;7.70;;;;;;;20.31;48.91;95778.72;10484002;28;20071;-54
2022/12/10 17:25:34;;;;;;;9.75;7.47;;;;;;;20.30;49.55;95787.97;10501384;28;20048;-59
2022/12/10 17:30:54;;;;;;;10.23;8.10;;;;;;;20.27;48.86;95777.88;10485680;28;20484;-57
2022/12/10 17:36:13;;;;;;;11.73;7.47;;;;;;;20.27;49.78;95782.50;10486561;28;20063;-58
2022/12/10 17:41:33;;;;;;;11.73;7.28;;;;;;;20.25;49.68;95785.56;10500138;28;20102;-62
2022/12/10 17:46:53;;;;;;;14.00;7.45;;;;;;;20.23;49.53;95787.81;10499942;28;20049;-61
2022/12/10 17:52:14;;;;;;;9.13;7.20;;;;;;;20.22;49.96;95780.84;10500087;28;20044;-58
2022/12/10 17:57:33;;;;;;;9.35;7.35;;;;;;;20.22;50.01;95780.06;10497354;28;20059;-60
2022/12/10 18:02:52;;;;;;;11.70;7.30;;;;;;;20.21;50.35;95778.47;10499242;28;20396;-56
2022/12/10 18:08:14;;;;;;;11.75;7.90;;;;;;;20.20;50.54;95780.41;10498244;28;20484;-59
2022/12/10 18:13:34;;;;;;;11.63;7.10;;;;;;;20.18;50.61;95777.28;10498549;28;20048;-56
2022/12/10 18:18:54;;;;;;;10.75;7.07;;;;;;;20.17;50.74;95769.50;10498404;28;20044;-56
2022/12/10 18:24:14;;;;;;;11.13;7.35;;;;;;;20.15;50.86;95786.88;10474391;28;20045;-58
2022/12/10 18:29:34;;;;;;;9.80;6.85;;;;;;;20.15;51.02;95794.22;10490115;28;20082;-58
2022/12/10 18:34:53;;;;;;;7.93;6.47;;;;;;;20.14;51.03;95798.03;10497987;28;20040;-59
2022/12/10 18:40:20;;;;;;;7.53;6.72;;;;;;;20.12;51.18;95805.72;10478224;28;20530;-57
2022/12/10 18:45:40;;;;;;;11.43;7.15;;;;;;;20.11;51.68;95812.25;10491138;28;20048;-58
2022/12/10 18:50:59;;;;;;;8.48;6.57;;;;;;;20.10;51.77;95813.41;10497850;28;20052;-58
2022/12/10 18:56:22;;;;;;;8.27;6.32;;;;;;;20.09;51.54;95809.13;10497145;28;20052;-59
2022/12/10 19:01:41;;;;;;;9.63;6.78;;;;;;;20.07;52.02;95806.78;10483925;28;20519;-56
2022/12/10 19:07:01;;;;;;;8.50;6.75;;;;;;;20.06;51.85;95813.31;10492271;28;20056;-56
2022/12/10 19:12:21;;;;;;;10.43;8.50;;;;;;;20.03;49.55;95805.13;10506442;28;20048;-57
2022/12/10 19:17:41;;;;;;;10.73;6.95;;;;;;;20.01;51.38;95797.34;10463253;28;20102;-57
2022/12/10 19:23:00;;;;;;;11.95;6.72;;;;;;;20.01;51.31;95791.94;10477581;28;20061;-60
2022/12/10 19:28:20;;;;;;;10.57;6.68;;;;;;;20.00;51.22;95811.25;10509795;28;20079;-57
2022/12/10 19:33:39;;;;;;;9.82;6.40;;;;;;;19.99;51.47;95815.84;10495641;28;20045;-58
2022/12/10 19:38:58;;;;;;;8.65;6.35;;;;;;;19.98;51.46;95824.31;10500108;28;20105;-60
2022/12/10 19:44:18;;;;;;;7.32;6.22;;;;;;;19.96;51.50;95827.38;10493756;28;20048;-57
2022/12/10 19:49:38;;;;;;;10.07;6.03;;;;;;;19.96;51.47;95830.06;10495426;28;20052;-60
2022/12/10 19:54:57;;;;;;;9.38;6.45;;;;;;;19.94;51.62;95822.31;10497969;28;20040;-56
2022/12/10 20:00:23;;;;;;;8.80;6.00;;;;;;;19.93;51.62;95818.06;10495547;28;20053;-58
2022/12/10 20:05:43;;;;;;;8.05;6.05;;;;;;;19.91;51.54;95804.06;10495223;28;20052;-58
2022/12/10 20:11:03;;;;;;;8.90;6.38;;;;;;;19.90;51.75;95818.75;10506815;28;20044;-58
2022/12/10 20:16:26;;;;;;;9.60;5.90;;;;;;;19.90;51.81;95816.03;10495902;28;20055;-57
2022/12/10 20:21:46;;;;;;;12.80;6.07;;;;;;;19.90;51.69;95815.25;10506372;28;20048;-59
2022/12/10 20:27:10;;;;;;;10.30;6.20;;;;;;;19.88;51.47;95815.59;10485744;28;20059;-58
2022/12/10 20:32:30;;;;;;;9.00;6.03;;;;;;;19.87;51.71;95814.03;10464153;28;20036;-59
2022/12/10 20:37:50;;;;;;;8.77;5.57;;;;;;;19.86;51.92;95812.47;10507442;28;20037;-58
2022/12/10 20:43:09;;;;;;;10.75;5.88;;;;;;;19.86;51.78;95822.50;10493242;28;20056;-60
2022/12/10 20:48:29;;;;;;;8.50;6.05;;;;;;;19.84;52.06;95816.66;10484657;28;20049;-59
2022/12/10 20:53:49;;;;;;;8.70;5.63;;;;;;;19.84;51.99;95808.56;10508121;28;20051;-60
2022/12/10 20:59:12;;;;;;;9.57;6.10;;;;;;;19.81;51.81;95796.50;10500052;28;20415;-57
2022/12/10 21:04:31;;;;;;;12.70;6.32;;;;;;;19.81;52.51;95806.53;10501448;28;20053;-63
2022/12/10 21:09:51;;;;;;;9.07;5.57;;;;;;;19.79;52.57;95806.09;10500317;28;20122;-57
2022/12/10 21:15:10;;;;;;;12.18;6.45;;;;;;;19.78;52.27;95807.22;10515532;28;20040;-58
2022/12/10 21:20:30;;;;;;;10.90;5.80;;;;;;;19.76;52.22;95815.69;10501279;28;20056;-57
2022/12/10 21:25:50;;;;;;;9.48;5.80;;;;;;;19.73;52.29;95803.66;10501170;28;20053;-58
2022/12/10 21:31:22;;;;;;;9.13;5.90;;;;;;;19.74;52.37;95804.47;10501854;28;20109;-57
2022/12/10 21:36:41;;;;;;;9.77;5.63;;;;;;;19.71;52.44;95800.50;10501344;28;20060;-52
2022/12/10 21:47:39;;;;;;;8.70;5.55;;;;;;;19.71;52.56;95797.00;10502614;28;20044;-57
2022/12/10 21:52:59;;;;;;;7.40;5.22;;;;;;;19.68;52.50;95795.78;10498080;28;20061;-58
2022/12/10 21:58:19;;;;;;;9.50;5.55;;;;;;;19.67;52.70;95786.09;10499742;28;20056;-58
2022/12/10 22:03:39;;;;;;;7.47;5.05;;;;;;;19.66;52.59;95795.38;10497931;28;20393;-58
2022/12/10 22:08:59;;;;;;;7.03;4.80;;;;;;;19.65;52.52;95795.69;10481025;28;20064;-58
2022/12/10 22:14:18;;;;;;;7.47;5.05;;;;;;;19.64;52.35;95813.03;10488353;28;20048;-58
2022/12/10 22:19:38;;;;;;;7.57;4.90;;;;;;;19.62;52.19;95812.59;10498339;28;20071;-58
2022/12/10 22:24:57;;;;;;;8.98;5.43;;;;;;;19.61;52.22;95817.22;10497361;28;20113;-56
2022/12/10 22:30:18;;;;;;;9.52;5.20;;;;;;;19.60;52.17;95822.97;10496661;28;20056;-51
2022/12/10 22:35:38;;;;;;;7.30;4.70;;;;;;;19.58;52.31;95815.22;10511972;28;20047;-58
2022/12/10 22:41:00;;;;;;;6.35;4.72;;;;;;;19.60;52.19;95814.88;10489848;28;20045;-58
2022/12/10 22:46:20;;;;;;;6.25;4.47;;;;;;;19.57;52.09;95810.94;10512217;28;20484;-56
2022/12/10 22:51:39;;;;;;;8.27;4.78;;;;;;;19.57;52.22;95824.47;10498418;28;20111;-58
2022/12/10 22:56:58;;;;;;;7.75;4.63;;;;;;;19.57;52.06;95816.34;10511432;28;20404;-57
2022/12/10 23:02:18;;;;;;;6.35;4.53;;;;;;;19.56;52.10;95812.06;10497282;28;20819;-57
2022/12/10 23:07:38;;;;;;;9.20;4.78;;;;;;;19.56;51.97;95812.06;10487102;28;20052;-59
2022/12/10 23:13:07;;;;;;;6.40;4.10;;;;;;;19.55;51.95;95810.50;10497624;28;20049;-58
2022/12/10 23:18:26;;;;;;;6.88;4.57;;;;;;;19.53;51.84;95805.44;10496732;28;20051;-58
2022/12/10 23:23:46;;;;;;;6.20;4.30;;;;;;;19.53;51.87;95800.06;10497145;28;20105;-58
2022/12/10 23:29:05;;;;;;;5.35;3.97;;;;;;;19.53;51.67;95801.97;10497399;28;20052;-58
2022/12/10 23:34:25;;;;;;;6.03;4.07;;;;;;;19.51;51.60;95801.53;10510181;28;20392;-58
2022/12/10 23:39:44;;;;;;;6.03;4.18;;;;;;;19.50;51.64;95794.56;10495982;28;20087;-58
2022/12/10 23:45:04;;;;;;;6.95;4.18;;;;;;;19.48;51.53;95803.03;10496087;28;20056;-58
2022/12/10 23:50:24;;;;;;;5.88;4.40;;;;;;;19.47;51.36;95811.47;10510133;28;20044;-58
2022/12/10 23:55:43;;;;;;;4.75;3.90;;;;;;;19.46;51.35;95807.19;10496535;28;20071;-58
